Airfield :
LOGIN :

Register | Disclaimer

   EN    FR    IT 

 










Legend :    VFR   Marginal VFR   IFR   Intensive IFR   Very Intensive IFR
Visi :
Ceiling :
>= 8 km
>= 3000ft
5 to 8 km
1000 to 3000 ft
1500m to 5 km
500 to 1000 ft
800 to 1500m
200 to 500 ft
< 800m
< 200 ft
Symbols :   Thunderstorms  Fog  Heavy snow  Heavy precipitations  Wind > 20 kt
SIGMETs :     Misc.  Thunderstorms  Icing  Turbulence  Mountain Waves  Volcanic Ashes






- Airport Elevation : 272 ft
- IATA code : MXN


LFRU - Morlaix-Ploujean

CURRENT METAR :
  • 030900Z AUTO 31009KT 280V350 9999 BKN018 OVC041 17/13 Q1022

EXPIRED METARs :
  • 030830Z AUTO 31010KT 280V340 9999 BKN018 BKN023 BKN035 16/12 Q1022
  • 030800Z AUTO 31010KT 270V340 9999 BKN019 BKN027 16/12 Q1022
  • 030730Z AUTO 28008KT 9999 FEW016 SCT025 16/13 Q1022
  • 030700Z AUTO 25005KT 9999 OVC034 14/13 Q1022
  • 030630Z AUTO 29004KT 260V320 9999 FEW012 BKN018 OVC034 13/13 Q1022

TAF N/A



MET'MAP, your aeronautical weather chart ! - Copyright ORBIFLY December 2007 - Disclaimer

ORBIFLY MET'MAP TEAM :

Programming & Development : Alexandra Zaïnal
Original concept : Baudouin d'Aumeries
Technical & hardware support : Manuel Goepfert
Assistance : Marc-Olivier Méhu




SOURCES & CREDITS :

   NOAA